sensor_id;sensor_type;location;lat;lon;timestamp;P1;durP1;ratioP1;P2;durP2;ratioP2
34471;SDS011;20710;49.976;19.836;2023-12-20T05:59:19;8.80;;;5.50;;
34471;SDS011;20710;49.976;19.836;2023-12-20T06:05:22;10.80;;;5.80;;
34471;SDS011;20710;49.976;19.836;2023-12-20T06:11:24;10.40;;;6.50;;
34471;SDS011;20710;49.976;19.836;2023-12-20T06:17:27;14.30;;;6.70;;
34471;SDS011;20710;49.976;19.836;2023-12-20T06:23:32;13.30;;;7.50;;
34471;SDS011;20710;49.976;19.836;2023-12-20T06:29:35;13.30;;;7.90;;
34471;SDS011;20710;49.976;19.836;2023-12-20T06:35:38;13.30;;;6.90;;
34471;SDS011;20710;49.976;19.836;2023-12-20T06:41:41;16.30;;;7.70;;
34471;SDS011;20710;49.976;19.836;2023-12-20T06:48:01;14.30;;;7.70;;
34471;SDS011;20710;49.976;19.836;2023-12-20T06:54:04;14.70;;;7.60;;
34471;SDS011;20710;49.976;19.836;2023-12-20T07:00:07;14.90;;;8.20;;
34471;SDS011;20710;49.976;19.836;2023-12-20T07:06:14;12.80;;;7.50;;
34471;SDS011;20710;49.976;19.836;2023-12-20T07:12:18;16.40;;;8.30;;
34471;SDS011;20710;49.976;19.836;2023-12-20T07:25:19;16.60;;;10.70;;
34471;SDS011;20710;49.976;19.836;2023-12-20T07:31:22;17.10;;;11.30;;
34471;SDS011;20710;49.976;19.836;2023-12-20T07:37:27;24.30;;;13.60;;
34471;SDS011;20710;49.976;19.836;2023-12-20T07:43:34;20.00;;;11.00;;
34471;SDS011;20710;49.976;19.836;2023-12-20T07:49:36;21.20;;;12.50;;
34471;SDS011;20710;49.976;19.836;2023-12-20T07:55:38;25.00;;;12.80;;
34471;SDS011;20710;49.976;19.836;2023-12-20T08:01:40;24.10;;;13.90;;
34471;SDS011;20710;49.976;19.836;2023-12-20T08:07:43;28.00;;;16.00;;
34471;SDS011;20710;49.976;19.836;2023-12-20T08:13:45;24.80;;;13.90;;
34471;SDS011;20710;49.976;19.836;2023-12-20T08:19:47;25.80;;;16.40;;
34471;SDS011;20710;49.976;19.836;2023-12-20T08:25:49;22.90;;;14.90;;
34471;SDS011;20710;49.976;19.836;2023-12-20T08:31:55;23.40;;;12.70;;
34471;SDS011;20710;49.976;19.836;2023-12-20T08:37:57;21.40;;;13.90;;
34471;SDS011;20710;49.976;19.836;2023-12-20T08:44:01;25.30;;;11.60;;
34471;SDS011;20710;49.976;19.836;2023-12-20T08:50:03;20.70;;;12.10;;
34471;SDS011;20710;49.976;19.836;2023-12-20T08:56:06;22.60;;;12.20;;
34471;SDS011;20710;49.976;19.836;2023-12-20T09:02:09;19.70;;;11.70;;
34471;SDS011;20710;49.976;19.836;2023-12-20T09:08:11;22.00;;;11.10;;
34471;SDS011;20710;49.976;19.836;2023-12-20T09:14:13;15.70;;;10.20;;
34471;SDS011;20710;49.976;19.836;2023-12-20T09:20:15;15.60;;;10.50;;
34471;SDS011;20710;49.976;19.836;2023-12-20T09:26:18;14.90;;;9.80;;
34471;SDS011;20710;49.976;19.836;2023-12-20T09:32:20;18.60;;;10.90;;
34471;SDS011;20710;49.976;19.836;2023-12-20T09:38:22;21.80;;;11.50;;
34471;SDS011;20710;49.976;19.836;2023-12-20T09:44:24;22.00;;;10.90;;
34471;SDS011;20710;49.976;19.836;2023-12-20T09:50:28;19.00;;;12.40;;
34471;SDS011;20710;49.976;19.836;2023-12-20T09:56:38;19.70;;;11.30;;
34471;SDS011;20710;49.976;19.836;2023-12-20T10:08:56;15.60;;;9.90;;
34471;SDS011;20710;49.976;19.836;2023-12-20T10:15:00;17.40;;;9.00;;
34471;SDS011;20710;49.976;19.836;2023-12-20T10:21:03;14.80;;;8.70;;
34471;SDS011;20710;49.976;19.836;2023-12-20T10:27:08;15.20;;;7.80;;
34471;SDS011;20710;49.976;19.836;2023-12-20T10:33:23;10.20;;;6.50;;
34471;SDS011;20710;49.976;19.836;2023-12-20T10:39:28;11.00;;;6.80;;
34471;SDS011;20710;49.976;19.836;2023-12-20T10:45:34;11.00;;;6.40;;
34471;SDS011;20710;49.976;19.836;2023-12-20T10:51:38;9.40;;;5.60;;
34471;SDS011;20710;49.976;19.836;2023-12-20T10:57:47;10.00;;;5.80;;
34471;SDS011;20710;49.976;19.836;2023-12-20T11:03:54;10.80;;;5.40;;
34471;SDS011;20710;49.976;19.836;2023-12-20T11:10:03;9.80;;;6.50;;
34471;SDS011;20710;49.976;19.836;2023-12-20T11:16:30;9.50;;;6.30;;
34471;SDS011;20710;49.976;19.836;2023-12-20T11:22:33;11.20;;;6.00;;
34471;SDS011;20710;49.976;19.836;2023-12-20T11:35:50;11.20;;;6.90;;
34471;SDS011;20710;49.976;19.836;2023-12-20T11:41:54;10.00;;;6.00;;
34471;SDS011;20710;49.976;19.836;2023-12-20T11:47:58;9.90;;;5.70;;
34471;SDS011;20710;49.976;19.836;2023-12-20T11:54:00;8.30;;;6.00;;
34471;SDS011;20710;49.976;19.836;2023-12-20T12:00:04;10.20;;;6.20;;
34471;SDS011;20710;49.976;19.836;2023-12-20T12:06:14;10.10;;;5.00;;
34471;SDS011;20710;49.976;19.836;2023-12-20T12:12:16;8.60;;;5.30;;
34471;SDS011;20710;49.976;19.836;2023-12-20T12:18:21;8.90;;;5.10;;
34471;SDS011;20710;49.976;19.836;2023-12-20T12:24:24;8.90;;;5.70;;
34471;SDS011;20710;49.976;19.836;2023-12-20T12:30:27;12.90;;;6.70;;
34471;SDS011;20710;49.976;19.836;2023-12-20T12:36:33;12.20;;;7.90;;
34471;SDS011;20710;49.976;19.836;2023-12-20T12:42:35;10.00;;;6.70;;
34471;SDS011;20710;49.976;19.836;2023-12-20T12:48:41;7.30;;;3.80;;
34471;SDS011;20710;49.976;19.836;2023-12-20T12:54:45;7.80;;;5.40;;
34471;SDS011;20710;49.976;19.836;2023-12-20T13:00:47;12.40;;;6.70;;
34471;SDS011;20710;49.976;19.836;2023-12-20T13:06:51;10.40;;;7.40;;
34471;SDS011;20710;49.976;19.836;2023-12-20T13:12:59;19.70;;;9.70;;
34471;SDS011;20710;49.976;19.836;2023-12-20T13:19:02;12.40;;;7.20;;
34471;SDS011;20710;49.976;19.836;2023-12-20T13:25:04;12.40;;;6.80;;
34471;SDS011;20710;49.976;19.836;2023-12-20T13:31:08;8.00;;;6.10;;
34471;SDS011;20710;49.976;19.836;2023-12-20T13:37:11;10.90;;;5.40;;
34471;SDS011;20710;49.976;19.836;2023-12-20T13:43:13;8.30;;;5.00;;
34471;SDS011;20710;49.976;19.836;2023-12-20T13:49:27;11.10;;;6.70;;
34471;SDS011;20710;49.976;19.836;2023-12-20T13:56:18;9.30;;;6.00;;
34471;SDS011;20710;49.976;19.836;2023-12-20T14:02:22;11.20;;;7.20;;
34471;SDS011;20710;49.976;19.836;2023-12-20T14:08:25;14.50;;;8.10;;
34471;SDS011;20710;49.976;19.836;2023-12-20T14:14:28;13.60;;;6.90;;
34471;SDS011;20710;49.976;19.836;2023-12-20T14:20:30;10.50;;;6.00;;
34471;SDS011;20710;49.976;19.836;2023-12-20T14:26:35;8.70;;;5.60;;
34471;SDS011;20710;49.976;19.836;2023-12-20T14:32:38;11.70;;;5.90;;
34471;SDS011;20710;49.976;19.836;2023-12-20T14:38:42;12.10;;;7.80;;
34471;SDS011;20710;49.976;19.836;2023-12-20T14:44:44;17.30;;;8.60;;
34471;SDS011;20710;49.976;19.836;2023-12-20T14:50:46;17.90;;;9.30;;
34471;SDS011;20710;49.976;19.836;2023-12-20T14:56:50;16.30;;;9.70;;
34471;SDS011;20710;49.976;19.836;2023-12-20T15:02:53;15.40;;;9.50;;
34471;SDS011;20710;49.976;19.836;2023-12-20T15:08:57;15.00;;;9.50;;
34471;SDS011;20710;49.976;19.836;2023-12-20T15:14:59;16.80;;;8.60;;
34471;SDS011;20710;49.976;19.836;2023-12-20T15:21:23;13.40;;;7.30;;
34471;SDS011;20710;49.976;19.836;2023-12-20T15:27:33;14.00;;;8.60;;
34471;SDS011;20710;49.976;19.836;2023-12-20T15:33:48;12.40;;;8.10;;
34471;SDS011;20710;49.976;19.836;2023-12-20T15:40:01;15.00;;;9.10;;
34471;SDS011;20710;49.976;19.836;2023-12-20T15:46:05;14.80;;;10.30;;
34471;SDS011;20710;49.976;19.836;2023-12-20T15:52:07;16.30;;;10.30;;
34471;SDS011;20710;49.976;19.836;2023-12-20T15:58:09;14.60;;;9.30;;
34471;SDS011;20710;49.976;19.836;2023-12-20T16:04:11;17.90;;;9.80;;
34471;SDS011;20710;49.976;19.836;2023-12-20T16:10:15;14.60;;;9.90;;
34471;SDS011;20710;49.976;19.836;2023-12-20T16:16:17;12.70;;;8.40;;
34471;SDS011;20710;49.976;19.836;2023-12-20T16:22:18;10.30;;;8.10;;
34471;SDS011;20710;49.976;19.836;2023-12-20T16:28:20;17.00;;;9.90;;
34471;SDS011;20710;49.976;19.836;2023-12-20T16:34:22;17.00;;;10.30;;
34471;SDS011;20710;49.976;19.836;2023-12-20T16:40:26;16.20;;;10.20;;
34471;SDS011;20710;49.976;19.836;2023-12-20T16:46:27;15.10;;;9.20;;
34471;SDS011;20710;49.976;19.836;2023-12-20T16:52:32;17.00;;;9.70;;
34471;SDS011;20710;49.976;19.836;2023-12-20T16:58:37;13.80;;;7.80;;
34471;SDS011;20710;49.976;19.836;2023-12-20T17:04:39;13.80;;;8.00;;
34471;SDS011;20710;49.976;19.836;2023-12-20T17:10:41;13.00;;;7.80;;
34471;SDS011;20710;49.976;19.836;2023-12-20T17:16:43;14.50;;;7.30;;
34471;SDS011;20710;49.976;19.836;2023-12-20T17:22:46;13.80;;;8.20;;
34471;SDS011;20710;49.976;19.836;2023-12-20T17:28:48;15.50;;;8.80;;
34471;SDS011;20710;49.976;19.836;2023-12-20T17:34:50;17.50;;;9.50;;
34471;SDS011;20710;49.976;19.836;2023-12-20T17:40:51;15.60;;;8.70;;
34471;SDS011;20710;49.976;19.836;2023-12-20T17:46:53;16.20;;;9.10;;
34471;SDS011;20710;49.976;19.836;2023-12-20T17:52:55;16.60;;;9.00;;
34471;SDS011;20710;49.976;19.836;2023-12-20T17:59:00;18.60;;;8.60;;
34471;SDS011;20710;49.976;19.836;2023-12-20T18:05:03;15.40;;;7.70;;
34471;SDS011;20710;49.976;19.836;2023-12-20T18:11:09;12.00;;;7.40;;
34471;SDS011;20710;49.976;19.836;2023-12-20T18:17:12;12.80;;;7.30;;
34471;SDS011;20710;49.976;19.836;2023-12-20T18:23:13;11.20;;;6.00;;
34471;SDS011;20710;49.976;19.836;2023-12-20T18:29:14;14.60;;;7.60;;
34471;SDS011;20710;49.976;19.836;2023-12-20T18:35:15;12.40;;;7.90;;
34471;SDS011;20710;49.976;19.836;2023-12-20T18:41:18;19.20;;;9.00;;
34471;SDS011;20710;49.976;19.836;2023-12-20T18:47:20;16.70;;;8.60;;
34471;SDS011;20710;49.976;19.836;2023-12-20T18:53:25;15.90;;;6.60;;
34471;SDS011;20710;49.976;19.836;2023-12-20T18:59:27;13.80;;;6.10;;
34471;SDS011;20710;49.976;19.836;2023-12-20T19:05:31;12.20;;;6.00;;
34471;SDS011;20710;49.976;19.836;2023-12-20T19:11:32;10.00;;;5.00;;
34471;SDS011;20710;49.976;19.836;2023-12-20T19:17:34;7.70;;;4.10;;
34471;SDS011;20710;49.976;19.836;2023-12-20T19:23:35;8.10;;;3.60;;
34471;SDS011;20710;49.976;19.836;2023-12-20T19:29:38;18.50;;;6.00;;
34471;SDS011;20710;49.976;19.836;2023-12-20T19:35:42;14.50;;;5.80;;
34471;SDS011;20710;49.976;19.836;2023-12-20T19:41:44;9.80;;;4.10;;
34471;SDS011;20710;49.976;19.836;2023-12-20T19:47:49;8.50;;;3.80;;
34471;SDS011;20710;49.976;19.836;2023-12-20T19:53:51;8.40;;;3.20;;
34471;SDS011;20710;49.976;19.836;2023-12-20T19:59:53;5.20;;;3.00;;
34471;SDS011;20710;49.976;19.836;2023-12-20T20:05:54;7.00;;;3.20;;
34471;SDS011;20710;49.976;19.836;2023-12-20T20:11:56;9.40;;;3.60;;
34471;SDS011;20710;49.976;19.836;2023-12-20T20:17:58;15.00;;;4.80;;
34471;SDS011;20710;49.976;19.836;2023-12-20T20:24:00;13.80;;;5.20;;
34471;SDS011;20710;49.976;19.836;2023-12-20T20:30:04;10.90;;;4.20;;
34471;SDS011;20710;49.976;19.836;2023-12-20T20:36:10;8.50;;;4.00;;
34471;SDS011;20710;49.976;19.836;2023-12-20T20:42:12;12.40;;;5.30;;
34471;SDS011;20710;49.976;19.836;2023-12-20T20:48:14;10.20;;;4.60;;
34471;SDS011;20710;49.976;19.836;2023-12-20T20:54:16;11.40;;;5.50;;
34471;SDS011;20710;49.976;19.836;2023-12-20T21:00:19;7.60;;;3.80;;
34471;SDS011;20710;49.976;19.836;2023-12-20T21:06:21;9.70;;;4.30;;
34471;SDS011;20710;49.976;19.836;2023-12-20T21:12:23;6.40;;;3.70;;
34471;SDS011;20710;49.976;19.836;2023-12-20T21:18:26;8.90;;;3.50;;
34471;SDS011;20710;49.976;19.836;2023-12-20T21:24:35;8.60;;;3.20;;
34471;SDS011;20710;49.976;19.836;2023-12-20T21:30:36;6.80;;;2.60;;
34471;SDS011;20710;49.976;19.836;2023-12-20T21:36:42;5.70;;;3.00;;
34471;SDS011;20710;49.976;19.836;2023-12-20T21:42:52;5.30;;;2.30;;
34471;SDS011;20710;49.976;19.836;2023-12-20T21:48:57;7.20;;;3.30;;
34471;SDS011;20710;49.976;19.836;2023-12-20T21:55:01;6.10;;;2.60;;
34471;SDS011;20710;49.976;19.836;2023-12-20T22:01:06;5.90;;;3.00;;
34471;SDS011;20710;49.976;19.836;2023-12-20T22:07:08;6.00;;;2.70;;
34471;SDS011;20710;49.976;19.836;2023-12-20T22:13:15;4.20;;;2.30;;
34471;SDS011;20710;49.976;19.836;2023-12-20T22:19:16;5.50;;;2.80;;
34471;SDS011;20710;49.976;19.836;2023-12-20T22:25:18;5.70;;;2.90;;
34471;SDS011;20710;49.976;19.836;2023-12-20T22:31:20;6.80;;;2.90;;
34471;SDS011;20710;49.976;19.836;2023-12-20T22:37:22;6.50;;;2.90;;
34471;SDS011;20710;49.976;19.836;2023-12-20T22:43:24;5.70;;;2.40;;
34471;SDS011;20710;49.976;19.836;2023-12-20T22:49:26;6.00;;;2.60;;
34471;SDS011;20710;49.976;19.836;2023-12-20T22:55:30;8.90;;;2.60;;
34471;SDS011;20710;49.976;19.836;2023-12-20T23:01:33;5.70;;;2.30;;
34471;SDS011;20710;49.976;19.836;2023-12-20T23:07:34;5.70;;;2.30;;
34471;SDS011;20710;49.976;19.836;2023-12-20T23:19:44;6.60;;;3.00;;
34471;SDS011;20710;49.976;19.836;2023-12-20T23:25:50;7.90;;;2.80;;
34471;SDS011;20710;49.976;19.836;2023-12-20T23:31:52;8.50;;;3.10;;
34471;SDS011;20710;49.976;19.836;2023-12-20T23:37:55;6.20;;;3.20;;
34471;SDS011;20710;49.976;19.836;2023-12-20T23:43:57;7.70;;;3.30;;
34471;SDS011;20710;49.976;19.836;2023-12-20T23:50:00;7.50;;;3.30;;
34471;SDS011;20710;49.976;19.836;2023-12-20T23:56:01;6.10;;;2.20;;
